Weather reports worldwide

Advertisment
Cardiff, Bute Park, United Kingdom (99160): temperature & dewpoint: 06.12.2019 10:00:00 - 12.12.2019 10:00:00 (GMT)Cardiff, Bute Park, United Kingdom (99160): temperature -20cm & temperature -100cm: 06.12.2019 10:00:00 - 12.12.2019 10:00:00 (GMT)Cardiff, Bute Park, United Kingdom (99160): precipitation: 06.12.2019 10:00:00 - 12.12.2019 10:00:00 (GMT)
Date & Time tt [°C] td [°C] tt -20cm [°C] tt -100cm [°C] rr [mm]
12.12.2019 10:00:00 - - - - -
12.12.2019 09:00:00 - - - - -
12.12.2019 08:00:00 - - - - -
12.12.2019 07:00:00 - - - - -
12.12.2019 06:00:00 - - - - -
12.12.2019 05:00:00 - - - - -
12.12.2019 04:00:00 - - - - -
12.12.2019 03:00:00 - - - - -
12.12.2019 02:00:00 - - - - -
12.12.2019 01:00:00 - - - - -
12.12.2019 00:00:00 - - - - -
11.12.2019 23:00:00 - - - - -
11.12.2019 22:00:00 - - - - -
11.12.2019 21:00:00 - - - - -
11.12.2019 20:00:00 - - - - -
11.12.2019 19:00:00 - - - - -
11.12.2019 18:00:00 - - - - -
11.12.2019 17:00:00 - - - - -
11.12.2019 16:00:00 - - - - -
11.12.2019 15:00:00 - - - - -
11.12.2019 14:00:00 - - - - -
11.12.2019 13:00:00 - - - - -
11.12.2019 12:00:00 - - - - -
11.12.2019 11:00:00 - - - - -
11.12.2019 10:00:00 - - - - -
11.12.2019 09:00:00 - - - - -
11.12.2019 08:00:00 6,1 4,5 - - 0,0
11.12.2019 07:00:00 6,7 4,3 - - 0,2
11.12.2019 06:00:00 5,7 4,5 - - 0,0
11.12.2019 05:00:00 4,4 3,9 - - 0,2
11.12.2019 04:00:00 3,9 3,2 - - 0,0
11.12.2019 03:00:00 5,4 4,6 - - 0,6
11.12.2019 02:00:00 4,3 3,4 - - 0,0
11.12.2019 01:00:00 4,9 3,5 - - 0,0
11.12.2019 00:00:00 5,1 3,7 - - 0,0
10.12.2019 23:00:00 5,4 3,8 - - 0,0
10.12.2019 22:00:00 6,5 4,4 - - 0,0
10.12.2019 21:00:00 7,2 5,4 - - 0,2
10.12.2019 20:00:00 7,7 6,0 - - 0,2
10.12.2019 19:00:00 8,3 6,5 - - 1,0
10.12.2019 18:00:00 9,1 7,6 - - 3,8
10.12.2019 17:00:00 12,6 11,4 - - 0,6
10.12.2019 16:00:00 12,9 11,0 - - 0,4
10.12.2019 15:00:00 13,2 10,6 - - 0,0
10.12.2019 14:00:00 12,9 10,6 - - 0,0
10.12.2019 13:00:00 12,1 10,1 - - 0,0
10.12.2019 12:00:00 11,2 9,4 - - 0,0
10.12.2019 11:00:00 10,7 9,2 - - 0,0
10.12.2019 10:00:00 10,0 8,9 - - 1,6
10.12.2019 09:00:00 9,6 8,4 7,2 8,7 1,8
10.12.2019 08:00:00 8,9 7,7 - - 1,2
10.12.2019 07:00:00 8,0 6,8 - - 0,6
10.12.2019 06:00:00 7,7 6,2 - - 0,0
10.12.2019 05:00:00 5,8 5,8 - - 0,2
10.12.2019 04:00:00 0,9 0,8 - - 0,0
10.12.2019 03:00:00 0,1 -0,2 - - 0,0
10.12.2019 02:00:00 0,2 -0,2 - - 0,0
10.12.2019 01:00:00 0,3 -0,1 - - 0,0
10.12.2019 00:00:00 0,4 0,1 - - 0,0
09.12.2019 23:00:00 0,5 0,0 - - 0,0
09.12.2019 22:00:00 0,7 0,0 - - 0,0
09.12.2019 21:00:00 1,8 0,9 - - 0,0
09.12.2019 20:00:00 2,5 1,0 - - 0,0
09.12.2019 19:00:00 3,4 1,7 - - 0,0
09.12.2019 18:00:00 3,8 1,0 - - 0,0
09.12.2019 17:00:00 5,8 1,3 - - 0,0
09.12.2019 16:00:00 8,1 1,0 - - 0,0
09.12.2019 15:00:00 9,2 1,0 - - 0,0
09.12.2019 14:00:00 9,8 1,1 - - 0,0
09.12.2019 13:00:00 10,0 0,8 - - 0,0
09.12.2019 12:00:00 9,9 1,8 - - 0,0
09.12.2019 11:00:00 9,5 2,3 - - 0,0
09.12.2019 10:00:00 8,8 3,0 - - 0,0
09.12.2019 09:00:00 8,4 3,5 7,9 8,7 0,0
09.12.2019 08:00:00 8,4 3,2 - - 0,0
09.12.2019 07:00:00 8,6 3,9 - - 0,0
09.12.2019 06:00:00 9,1 3,8 - - 0,0
09.12.2019 05:00:00 9,2 4,8 - - 0,2
09.12.2019 04:00:00 8,8 6,0 - - 0,4
09.12.2019 03:00:00 8,5 5,9 - - 0,2
09.12.2019 02:00:00 8,1 5,7 - - 1,0
09.12.2019 01:00:00 8,3 5,2 - - 0,0
09.12.2019 00:00:00 8,0 4,7 - - 0,0
08.12.2019 23:00:00 - - - - 0,2
08.12.2019 22:00:00 - - - - 3,0
08.12.2019 21:00:00 - - - - 1,8
08.12.2019 20:00:00 - - - - 0,6
08.12.2019 19:00:00 - - - - 0,2
08.12.2019 18:00:00 - - - - 0,0
08.12.2019 17:00:00 - - - - 0,0
08.12.2019 16:00:00 - - - - 1,6
08.12.2019 15:00:00 - - - - 2,0
08.12.2019 14:00:00 - - - - 0,0
08.12.2019 13:00:00 - - - - 1,6
08.12.2019 12:00:00 - - - - 0,8
08.12.2019 11:00:00 - - - - 0,0
08.12.2019 10:00:00 - - - - 0,0
08.12.2019 09:00:00 - - - - 0,0
08.12.2019 08:00:00 - - - - 0,0
08.12.2019 07:00:00 - - - - 0,0
08.12.2019 06:00:00 - - - - 0,0
08.12.2019 05:00:00 - - - - 0,0
08.12.2019 04:00:00 - - - - 0,0
08.12.2019 03:00:00 - - - - 1,0
08.12.2019 02:00:00 - - - - 0,8
08.12.2019 01:00:00 - - - - 5,4
08.12.2019 00:00:00 - - - - 4,8
07.12.2019 23:00:00 - - - - 0,6
07.12.2019 22:00:00 - - - - 0,0
07.12.2019 21:00:00 - - - - 0,0
07.12.2019 20:00:00 - - - - -
07.12.2019 19:00:00 - - - - 0,0
07.12.2019 18:00:00 - - - - 0,0
07.12.2019 17:00:00 - - - - 0,0
07.12.2019 16:00:00 - - - - 0,0
07.12.2019 15:00:00 - - - - 0,0
07.12.2019 14:00:00 - - - - 0,2
07.12.2019 13:00:00 - - - - -
07.12.2019 12:00:00 - - - - -
07.12.2019 11:00:00 - - - - -
07.12.2019 10:00:00 - - - - -
07.12.2019 09:00:00 - - - - -
07.12.2019 08:00:00 - - - - -
07.12.2019 07:00:00 - - - - -
07.12.2019 06:00:00 - - - - 0,0
07.12.2019 05:00:00 - - - - -
07.12.2019 04:00:00 - - - - -
07.12.2019 03:00:00 - - - - -
07.12.2019 02:00:00 - - - - -
07.12.2019 01:00:00 - - - - -
07.12.2019 00:00:00 - - - - -
06.12.2019 23:00:00 - - - - -
06.12.2019 22:00:00 - - - - -
06.12.2019 21:00:00 - - - - -
06.12.2019 20:00:00 - - - - -
06.12.2019 19:00:00 - - - - -
06.12.2019 18:00:00 - - - - -
06.12.2019 17:00:00 - - - - 0,0
06.12.2019 16:00:00 - - - - -
06.12.2019 15:00:00 - - - - -
06.12.2019 14:00:00 - - - - -
06.12.2019 13:00:00 - - - - -
06.12.2019 12:00:00 - - - - -
06.12.2019 11:00:00 - - - - -
06.12.2019 10:00:00 - - - - -

tt = temperature
td = dewpoint
tt -20cm = temperature -20cm
tt -100cm = temperature -100cm
rr = precipitation

Next stations